Flight Track Log - Related Links

Times and Time Zones

All times are in EDT time to prevent confusion due to time zone crossing. See the CCA1265 flight status page for this flight to view local times or setup timezone preferences in your user account.

Time Position Orientation Groundspeed Altitude Reporting Facility
EDT Latitude Longitude Course Direction KTS MPH feet Rate Location/Type
Sun 12:01:00 AM 34.6176 108.4692 306° West  Level Estimated
Sun 12:02:00 AM 34.6743 108.3748 306° West  Level Estimated
Sun 12:03:00 AM 34.7309 108.2803 306° West  Level Estimated
Sun 12:04:00 AM 34.7874 108.1856 306° West  Level Estimated
Sun 12:05:00 AM 34.8439 108.0908 306° West  Level Estimated
Sun 12:06:00 AM 34.9003 107.9959 306° West  Level Estimated
Sun 12:07:00 AM 34.9566 107.9009 306° West  Level Estimated
Sun 12:08:00 AM 35.0128 107.8057 306° West  Level Estimated
Sun 12:09:00 AM 35.0690 107.7104 306° West  Level Estimated
Sun 12:10:00 AM 35.1251 107.6150 306° West  Level Estimated
Sun 12:11:00 AM 35.1811 107.5194 306° West  Level Estimated
Sun 12:12:00 AM 35.2370 107.4237 306° West  Level Estimated
Sun 12:13:00 AM 35.2929 107.3279 306° West  Level Estimated
Sun 12:14:00 AM 35.3487 107.2319 305° West  Level Estimated
Sun 12:15:00 AM 35.4044 107.1358 305° West  Level Estimated
Sun 12:16:00 AM 35.4600 107.0396 305° West  Level Estimated
Sun 12:17:00 AM 35.5156 106.9433 305° West  Level Estimated
Sun 12:18:00 AM 35.5711 106.8468 305° West  Level Estimated
Sun 12:19:00 AM 35.6265 106.7501 305° West  Level Estimated
Sun 12:20:00 AM 35.6818 106.6534 305° West  Level Estimated
Sun 12:21:00 AM 35.7371 106.5565 305° West  Level Estimated
Sun 12:22:00 AM 35.7922 106.4594 305° West  Level Estimated
Sun 12:23:00 AM 35.8473 106.3623 305° West  Level Estimated
Sun 12:24:00 AM 35.9024 106.2650 305° West  Level Estimated
Sun 12:25:00 AM 35.9573 106.1675 305° West  Level Estimated
Sun 12:26:00 AM 36.0121 106.0700 305° West  Level Estimated
Sun 12:27:00 AM 36.0669 105.9723 305° West  Level Estimated
Sun 12:28:00 AM 36.1216 105.8744 305° West  Level Estimated
Sun 12:29:00 AM 36.1763 105.7765 305° West  Level Estimated
Sun 12:30:00 AM 36.2308 105.6783 305° West  Level Estimated
Sun 12:31:00 AM 36.2853 105.5801 305° West  Level Estimated
Sun 12:32:00 AM 36.3396 105.4817 304° West  Level Estimated
Sun 12:33:00 AM 36.3939 105.3832 304° West  Level Estimated
Sun 12:34:00 AM 36.4482 105.2845 304° West  Level Estimated
Sun 12:35:00 AM 36.5023 105.1857 304° West  Level Estimated
Sun 12:36:00 AM 36.5564 105.0868 304° West  Level Estimated
Sun 12:37:00 AM 36.6103 104.9877 304° West  Level Estimated
Sun 12:38:00 AM 36.6642 104.8885 304° West  Level Estimated
Sun 12:39:00 AM 36.7180 104.7891 304° West  Level Estimated
Sun 12:40:00 AM 36.7718 104.6896 304° West  Level Estimated
Sun 12:41:00 AM 36.8254 104.5900 304° West  Level Estimated
Sun 12:42:00 AM 36.8790 104.4902 304° West  Level Estimated
Sun 12:43:00 AM 36.9324 104.3903 304° West  Level Estimated
Sun 12:44:00 AM 36.9858 104.2902 304° West  Level Estimated
Sun 12:45:00 AM 37.0391 104.1900 304° West  Level Estimated
Sun 12:46:00 AM 37.0924 104.0897 304° West  Level Estimated
Sun 12:47:00 AM 37.1455 103.9892 304° West  Level Estimated
Sun 12:48:00 AM 37.1986 103.8886 304° West  Level Estimated
Sun 12:49:00 AM 37.2515 103.7879 303° West  Level Estimated
Sun 12:50:00 AM 37.3044 103.6870 303° West  Level Estimated
Sun 12:51:00 AM 37.3572 103.5859 303° West  Level Estimated
Sun 12:52:00 AM 37.4099 103.4847 303° West  Level Estimated
Sun 12:53:00 AM 37.4626 103.3834 303° West  Level Estimated
Sun 12:54:00 AM 37.5151 103.2819 303° West  Level Estimated
Sun 12:55:00 AM 37.5676 103.1803 303° West  Level Estimated
Sun 12:56:00 AM 37.6199 103.0786 303° West  Level Estimated
Sun 12:57:00 AM 37.6722 102.9767 303° West  Level Estimated
Sun 12:58:00 AM 37.7244 102.8746 303° West  Level Estimated
Sun 12:59:00 AM 37.7765 102.7724 303° West  Level Estimated
Sun 01:00:00 AM 37.8285 102.6701 303° West  Level Estimated
Sun 01:01:00 AM 37.8804 102.5676 303° West  Level Estimated
Sun 01:02:00 AM 37.9323 102.4650 303° West  Level Estimated
Sun 01:03:00 AM 37.9840 102.3623 303° West  Level Estimated
Sun 01:04:00 AM 38.0357 102.2593 303° West  Level Estimated
Sun 01:05:00 AM 38.0872 102.1563 302° West  Level Estimated
Sun 01:06:00 AM 38.1387 102.0531 302° West  Level Estimated
Sun 01:07:00 AM 38.1901 101.9498 302° West  Level Estimated
Sun 01:08:00 AM 38.2414 101.8463 302° West  Level Estimated
Sun 01:09:00 AM 38.2926 101.7426 302° West  Level Estimated
Sun 01:10:00 AM 38.3437 101.6388 302° West  Level Estimated
Sun 01:11:00 AM 38.3947 101.5349 302° West  Level Estimated
Sun 01:12:00 AM 38.4457 101.4308 302° West  Level Estimated
Sun 01:13:00 AM 38.4965 101.3266 302° West  Level Estimated
Sun 01:14:00 AM 38.5473 101.2222 302° West  Level Estimated
Sun 01:15:00 AM 38.5979 101.1177 302° West  Level Estimated
Sun 01:16:00 AM 38.6485 101.0131 302° West  Level Estimated
Sun 01:17:00 AM 38.6989 100.9082 302° West  Level Estimated
Sun 01:18:00 AM 38.7493 100.8033 302° West  Level Estimated
Sun 01:19:00 AM 38.7996 100.6982 302° West  Level Estimated
Sun 01:20:00 AM 38.8498 100.5929 301° West  Level Estimated
Sun 01:21:00 AM 38.8999 100.4875 301° West  Level Estimated
Sun 01:22:00 AM 38.9499 100.3820 301° West  Level Estimated
Sun 01:23:00 AM 38.9998 100.2763 301° West  Level Estimated
Sun 01:24:00 AM 39.0496 100.1704 301° West  Level Estimated
Sun 01:25:00 AM 39.0993 100.0644 301° West  Level Estimated
Sun 01:26:00 AM 39.1489 99.9583 301° West  Level Estimated
Sun 01:27:00 AM 39.1984 99.8520 301° West  Level Estimated
Sun 01:28:00 AM 39.2478 99.7455 301° West  Level Estimated
Sun 01:29:00 AM 39.2972 99.6389 301° West  Level Estimated
Sun 01:30:00 AM 39.3464 99.5322 301° West  Level Estimated
Sun 01:31:00 AM 39.3955 99.4253 301° West  Level Estimated
Sun 01:32:00 AM 39.4445 99.3182 301° West  Level Estimated
Sun 01:33:00 AM 39.4935 99.2110 301° West  Level Estimated
Sun 01:34:00 AM 39.5423 99.1037 301° West  Level Estimated
Sun 01:35:00 AM 39.5910 98.9961 300° West  Level Estimated
Sun 01:36:00 AM 39.6397 98.8885 300° West  Level Estimated
Sun 01:37:00 AM 39.6882 98.7807 300° West  Level Estimated
Sun 01:38:00 AM 39.7366 98.6727 300° West  Level Estimated
Sun 01:39:00 AM 39.7850 98.5646 300° West  Level Estimated
Sun 01:40:00 AM 39.8332 98.4564 300° West  Level Estimated
Sun 01:41:00 AM 39.8814 98.3480 300° West  Level Estimated
Sun 01:42:00 AM 39.9294 98.2394 300° West  Level Estimated
Sun 01:43:00 AM 39.9773 98.1307 300° West  Level Estimated
Sun 01:44:00 AM 40.0252 98.0218 300° West  Level Estimated
Sun 01:45:00 AM 40.0729 97.9128 300° West  Level Estimated
Sun 01:46:00 AM 40.1205 97.8036 300° West  Level Estimated
Sun 01:47:00 AM 40.1680 97.6943 300° West  Level Estimated
Sun 01:48:00 AM 40.2155 97.5848 300° West  Level Estimated
Sun 01:49:00 AM 40.2628 97.4752 300° West  Level Estimated
Sun 01:50:00 AM 40.3100 97.3654 299° West  Level Estimated
Sun 01:51:00 AM 40.3571 97.2554 299° West  Level Estimated
Sun 01:52:00 AM 40.4041 97.1453 299° West  Level Estimated
Sun 01:53:00 AM 40.4510 97.0351 299° West  Level Estimated
Sun 01:54:00 AM 40.4978 96.9247 299° West  Level Estimated
Sun 01:55:00 AM 40.5445 96.8141 299° West  Level Estimated
Sun 01:56:00 AM 40.5911 96.7034 299° West  Level Estimated
Sun 01:57:00 AM 40.6375 96.5926 299° West  Level Estimated
Sun 01:58:00 AM 40.6839 96.4815 299° West  Level Estimated
Sun 01:59:00 AM 40.7302 96.3704 299° West  Level Estimated
Sun 02:00:00 AM 40.7763 96.2590 299° West  Level Estimated
Sun 02:01:00 AM 40.8224 96.1476 299° West  Level Estimated
Sun 02:02:00 AM 40.8683 96.0359 299° West  Level Estimated
Sun 02:03:00 AM 40.9142 95.9241 299° West  Level Estimated
Sun 02:04:00 AM 40.9599 95.8122 298° West  Level Estimated
Sun 02:05:00 AM 41.0055 95.7001 298° West  Level Estimated
Sun 02:06:00 AM 41.0510 95.5878 298° West  Level Estimated
Sun 02:07:00 AM 41.0964 95.4754 298° West  Level Estimated
Sun 02:08:00 AM 41.1417 95.3628 298° West  Level Estimated
Sun 02:09:00 AM 41.1869 95.2501 298° West  Level Estimated
Sun 02:10:00 AM 41.2320 95.1372 298° West  Level Estimated
Sun 02:11:00 AM 41.2770 95.0242 298° West  Level Estimated
Sun 02:12:00 AM 41.3218 94.9110 298° West  Level Estimated
Sun 02:13:00 AM 41.3666 94.7977 298° West  Level Estimated
Sun 02:14:00 AM 41.4112 94.6842 298° West  Level Estimated
Sun 02:15:00 AM 41.4557 94.5705 298° West  Level Estimated
Sun 02:16:00 AM 41.5001 94.4567 298° West  Level Estimated
Sun 02:17:00 AM 41.5444 94.3427 297° West  Level Estimated
Sun 02:18:00 AM 41.5886 94.2286 297° West  Level Estimated
Sun 02:19:00 AM 41.6326 94.1143 297° West  Level Estimated
Sun 02:20:00 AM 41.6766 93.9999 297° West  Level Estimated
Sun 02:21:00 AM 41.7205 93.8853 297° West  Level Estimated
Sun 02:22:00 AM 41.7642 93.7706 297° West  Level Estimated
Sun 02:23:00 AM 41.8078 93.6556 297° West  Level Estimated
Sun 02:24:00 AM 41.8513 93.5406 297° West  Level Estimated
Sun 02:25:00 AM 41.8947 93.4254 297° West  Level Estimated
Sun 02:26:00 AM 41.9379 93.3100 297° West  Level Estimated
Sun 02:27:00 AM 41.9811 93.1945 297° West  Level Estimated
Sun 02:28:00 AM 42.0241 93.0788 297° West  Level Estimated
Sun 02:29:00 AM 42.0671 92.9629 297° West  Level Estimated
Sun 02:30:00 AM 42.1099 92.8469 296° West  Level Estimated
Sun 02:31:00 AM 42.1525 92.7308 296° West  Level Estimated
Sun 02:32:00 AM 42.1951 92.6144 296° West  Level Estimated
Sun 02:33:00 AM 42.2376 92.4980 296° West  Level Estimated
Sun 02:34:00 AM 42.2799 92.3813 296° West  Level Estimated
Sun 02:35:00 AM 42.3221 92.2646 296° West  Level Estimated
Sun 02:36:00 AM 42.3642 92.1476 296° West  Level Estimated
Sun 02:37:00 AM 42.4062 92.0305 296° West  Level Estimated
Sun 02:38:00 AM 42.4480 91.9133 296° West  Level Estimated
Sun 02:39:00 AM 42.4898 91.7959 296° West  Level Estimated
Sun 02:40:00 AM 42.5314 91.6783 296° West  Level Estimated
Sun 02:41:00 AM 42.5729 91.5606 296° West  Level Estimated
Sun 02:42:00 AM 42.6143 91.4427 296° West  Level Estimated
Sun 02:43:00 AM 42.6555 91.3247 295° West  Level Estimated
Sun 02:44:00 AM 42.6967 91.2065 295° West  Level Estimated
Sun 02:45:00 AM 42.7377 91.0881 295° West  Level Estimated
Sun 02:46:00 AM 42.7786 90.9696 295° West  Level Estimated
Sun 02:47:00 AM 42.8193 90.8510 295° West  Level Estimated
Sun 02:48:00 AM 42.8600 90.7321 295° West  Level Estimated
Sun 02:49:00 AM 42.9005 90.6132 295° West  Level Estimated
Sun 02:50:00 AM 42.9409 90.4940 295° West  Level Estimated
Sun 02:51:00 AM 42.9812 90.3747 295° West  Level Estimated
Sun 02:52:00 AM 43.0213 90.2553 295° West  Level Estimated
Sun 02:53:00 AM 43.0614 90.1357 295° West  Level Estimated
Sun 02:54:00 AM 43.1013 90.0159 295° West  Level Estimated
Sun 02:55:00 AM 43.1410 89.8960 294° West  Level Estimated
Sun 02:56:00 AM 43.1807 89.7760 294° West  Level Estimated
Sun 02:57:00 AM 43.2202 89.6557 294° West  Level Estimated
Sun 02:58:00 AM 43.2596 89.5354 294° West  Level Estimated
Sun 02:59:00 AM 43.2989 89.4148 294° West  Level Estimated
Sun 03:00:00 AM 43.3381 89.2941 294° West  Level Estimated
Sun 03:01:00 AM 43.3771 89.1733 294° West  Level Estimated
Sun 03:02:00 AM 43.4160 89.0523 294° West  Level Estimated
Sun 03:03:00 AM 43.4547 88.9311 294° West  Level Estimated
Sun 03:04:00 AM 43.4934 88.8098 294° West  Level Estimated
Sun 03:05:00 AM 43.5319 88.6883 294° West  Level Estimated
Sun 03:06:00 AM 43.5703 88.5667 294° West  Level Estimated
Sun 03:07:00 AM 43.6085 88.4449 293° West  Level Estimated
Sun 03:08:00 AM 43.6466 88.3230 293° West  Level Estimated
Sun 03:09:00 AM 43.6846 88.2009 293° West  Level Estimated
Sun 03:10:00 AM 43.7225 88.0787 293° West  Level Estimated
Sun 03:11:00 AM 43.7602 87.9563 293° West  Level Estimated
Sun 03:12:00 AM 43.7978 87.8337 293° West  Level Estimated
Sun 03:13:00 AM 43.8353 87.7111 293° West  Level Estimated
Sun 03:14:00 AM 43.8726 87.5882 293° West  Level Estimated
Sun 03:15:00 AM 43.9071 87.4742 293° West  Level Estimated
Sun 03:16:00 AM 43.9071 87.4742 North  Level Estimated
Sun 03:17:00 AM 43.9071 87.4742 North  Level Estimated
Sun 03:18:00 AM 43.9071 87.4742 North  Level Estimated
Sun 03:19:00 AM 43.9071 87.4742 North  Level Estimated
Sun 03:20:00 AM 43.9071 87.4742 North  Level Estimated
Sun 03:21:00 AM 43.9071 87.4742 North  Level Estimated
Sun 03:22:00 AM 43.9071 87.4742 North  Level Estimated
Sun 03:23:00 AM 43.9071 87.4742 North  Level Estimated
Sun 03:24:00 AM 43.9071 87.4742 North  Level Estimated
Sun 03:25:00 AM 43.9071 87.4742 North  Level Estimated

Login

Don't have an account? Register now (free) for customized features, flight alerts, and more!